createdAt,value
2023-03-02T00:01:49.571Z,29.85
2023-03-02T00:04:20.781Z,26.75
2023-03-02T00:06:49.664Z,29.23
2023-03-02T00:09:18.002Z,27.73
2023-03-02T00:11:46.403Z,25.27
2023-03-02T00:14:14.266Z,26.95
2023-03-02T00:16:42.150Z,28.95
2023-03-02T00:19:11.401Z,27.33
2023-03-02T00:21:39.325Z,28.20
2023-03-02T00:24:08.027Z,28.70
2023-03-02T00:26:36.099Z,27.88
2023-03-02T00:29:05.177Z,27.25
2023-03-02T00:31:33.875Z,28.63
2023-03-02T00:34:01.941Z,29.48
2023-03-02T00:36:31.558Z,29.20
2023-03-02T00:38:59.494Z,27.70
2023-03-02T00:41:27.464Z,26.98
2023-03-02T00:43:55.383Z,28.17
2023-03-02T00:46:25.302Z,28.90
2023-03-02T00:48:53.411Z,29.90
2023-03-02T00:51:21.809Z,28.45
2023-03-02T00:53:51.082Z,29.02
2023-03-02T00:56:19.410Z,28.35
2023-03-02T00:58:47.293Z,28.33
2023-03-02T01:01:17.686Z,29.05
2023-03-02T01:03:46.544Z,27.60
2023-03-02T01:06:19.202Z,28.00
2023-03-02T01:08:47.630Z,28.33
2023-03-02T01:11:19.889Z,28.73
2023-03-02T01:13:48.674Z,30.30
2023-03-02T01:16:16.938Z,28.13
2023-03-02T01:18:44.860Z,28.10
2023-03-02T01:21:15.742Z,28.88
2023-03-02T01:23:44.158Z,27.20
2023-03-02T01:26:12.984Z,27.02
2023-03-02T01:28:42.240Z,28.63
2023-03-02T01:31:10.271Z,28.60
2023-03-02T01:33:38.177Z,28.52
2023-03-02T01:36:06.842Z,29.33
2023-03-02T01:38:34.892Z,29.23
2023-03-02T01:41:02.832Z,29.20
2023-03-02T01:43:30.812Z,30.35
2023-03-02T01:46:02.555Z,28.42
2023-03-02T01:48:34.315Z,28.40
2023-03-02T01:51:03.481Z,28.55
2023-03-02T01:53:33.625Z,29.25
2023-03-02T01:56:03.383Z,29.73
2023-03-02T01:58:35.424Z,30.23
2023-03-02T02:01:05.480Z,29.88
2023-03-02T02:03:34.313Z,30.02
2023-03-02T02:06:10.231Z,30.65
2023-03-02T02:08:39.394Z,29.05
2023-03-02T02:11:07.736Z,28.95
2023-03-02T02:13:35.768Z,29.05
2023-03-02T02:16:06.206Z,30.05
2023-03-02T02:18:34.804Z,29.83
2023-03-02T02:21:03.133Z,28.77
2023-03-02T02:23:37.644Z,30.25
2023-03-02T02:26:12.974Z,27.95
2023-03-02T02:28:44.629Z,29.98
2023-03-02T02:31:17.211Z,30.45
2023-03-02T02:33:50.460Z,29.27
2023-03-02T02:36:22.523Z,29.92
2023-03-02T02:38:54.761Z,29.17
2023-03-02T02:41:27.458Z,29.85
2023-03-02T02:43:55.988Z,30.17
2023-03-02T02:46:25.625Z,31.30
2023-03-02T02:48:53.937Z,31.15
2023-03-02T02:51:26.439Z,30.13
2023-03-02T02:53:59.048Z,29.15
2023-03-02T02:56:31.646Z,30.65
2023-03-02T02:59:05.218Z,31.27
2023-03-02T03:01:35.497Z,31.05
2023-03-02T03:04:05.558Z,30.98
2023-03-02T03:06:38.448Z,29.95
2023-03-02T03:09:07.680Z,29.25
2023-03-02T03:11:38.779Z,31.25
2023-03-02T03:14:09.811Z,30.67
2023-03-02T03:16:40.051Z,30.77
2023-03-02T03:19:15.629Z,30.95
2023-03-02T03:21:43.571Z,29.10
2023-03-02T03:24:11.757Z,32.60
2023-03-02T03:26:41.052Z,29.17
2023-03-02T03:29:09.303Z,30.88
2023-03-02T03:31:37.590Z,29.38
2023-03-02T03:34:06.541Z,31.67
2023-03-02T03:36:35.312Z,31.77
2023-03-02T03:39:05.603Z,31.15
2023-03-02T03:41:33.895Z,32.75
2023-03-02T03:44:03.215Z,32.92
2023-03-02T03:46:31.595Z,32.65
2023-03-02T03:48:59.818Z,32.78
2023-03-02T03:51:28.130Z,32.67
2023-03-02T03:54:00.800Z,31.38
2023-03-02T03:56:29.182Z,32.58
2023-03-02T03:59:06.391Z,33.30
2023-03-02T04:01:37.775Z,32.75
2023-03-02T04:04:07.036Z,33.80
2023-03-02T04:06:35.458Z,33.15
2023-03-02T04:09:04.559Z,31.63
2023-03-02T04:11:33.267Z,32.72
2023-03-02T04:14:01.541Z,32.47
2023-03-02T04:16:31.643Z,33.47
2023-03-02T04:19:01.630Z,32.17
2023-03-02T04:21:30.051Z,32.90
2023-03-02T04:23:57.961Z,32.33
2023-03-02T04:26:26.919Z,33.78
2023-03-02T04:28:55.127Z,33.60
2023-03-02T04:31:23.105Z,32.88
2023-03-02T04:33:51.065Z,32.17
2023-03-02T04:36:20.652Z,35.25
2023-03-02T04:38:49.005Z,33.45
2023-03-02T04:41:17.689Z,35.00
2023-03-02T04:43:45.818Z,35.45
2023-03-02T04:46:16.459Z,31.80
2023-03-02T04:48:44.432Z,35.83
2023-03-02T04:51:24.090Z,33.47
2023-03-02T04:53:52.357Z,34.83
2023-03-02T04:56:20.308Z,34.08
2023-03-02T04:58:48.522Z,35.17
2023-03-02T05:01:17.714Z,34.20
2023-03-02T05:03:45.733Z,32.85
2023-03-02T05:06:13.869Z,33.92
2023-03-02T05:08:43.905Z,33.92
2023-03-02T05:11:15.869Z,35.28
2023-03-02T05:13:43.838Z,33.45
2023-03-02T05:16:11.771Z,35.08
2023-03-02T05:18:39.680Z,35.45
2023-03-02T05:21:07.731Z,34.53
2023-03-02T05:23:35.770Z,35.80
2023-03-02T05:26:05.368Z,33.17
2023-03-02T05:28:33.550Z,35.22
2023-03-02T05:31:02.375Z,34.55
2023-03-02T05:33:30.884Z,34.13
2023-03-02T05:35:58.896Z,36.17
2023-03-02T05:38:27.906Z,33.50
2023-03-02T05:40:55.848Z,36.80
2023-03-02T05:43:25.222Z,34.80
2023-03-02T05:45:53.283Z,37.22
2023-03-02T05:48:21.175Z,34.80
2023-03-02T05:50:49.106Z,34.70
2023-03-02T05:53:17.070Z,34.33
2023-03-02T05:55:45.003Z,34.30
2023-03-02T05:58:15.404Z,34.42
2023-03-02T06:00:44.875Z,35.88
2023-03-02T06:03:13.050Z,34.58
2023-03-02T06:05:41.138Z,35.35
2023-03-02T06:08:09.103Z,35.35
2023-03-02T06:10:37.271Z,35.28
2023-03-02T06:13:05.255Z,34.03
2023-03-02T06:15:33.194Z,35.42
2023-03-02T06:18:02.404Z,33.83
2023-03-02T06:20:30.400Z,33.83
2023-03-02T06:22:58.594Z,37.40
2023-03-02T06:25:26.708Z,34.25
2023-03-02T06:27:54.631Z,37.33
2023-03-02T06:30:24.378Z,33.92
2023-03-02T06:32:52.804Z,35.80
2023-03-02T06:35:23.951Z,37.67
2023-03-02T06:37:52.042Z,35.40
2023-03-02T06:40:21.647Z,33.75
2023-03-02T06:42:49.762Z,35.28
2023-03-02T06:45:17.976Z,35.28
2023-03-02T06:47:45.872Z,35.35
2023-03-02T06:50:13.822Z,34.42
2023-03-02T06:52:43.002Z,34.00
2023-03-02T06:55:11.537Z,36.42
2023-03-02T06:57:39.460Z,34.97
2023-03-02T07:00:15.488Z,33.95
2023-03-02T07:02:43.394Z,35.42
2023-03-02T07:05:11.335Z,36.13
2023-03-02T07:07:39.325Z,36.67
2023-03-02T07:10:10.836Z,37.85
2023-03-02T07:12:38.775Z,36.50
2023-03-02T07:15:12.418Z,37.90
2023-03-02T07:17:42.713Z,31.90
2023-03-02T07:20:12.495Z,34.78
2023-03-02T07:22:41.257Z,34.15
2023-03-02T07:25:12.451Z,36.33
2023-03-02T07:27:40.853Z,32.13
2023-03-02T07:30:10.110Z,30.17
2023-03-02T07:32:38.034Z,33.00
2023-03-02T07:35:06.601Z,32.00
2023-03-02T07:37:34.552Z,31.23
2023-03-02T07:40:02.560Z,29.67
2023-03-02T07:42:31.756Z,31.38
2023-03-02T07:44:59.871Z,30.92
2023-03-02T07:47:27.993Z,30.98
2023-03-02T07:49:56.007Z,30.65
2023-03-02T07:52:24.110Z,31.23
2023-03-02T07:54:52.140Z,31.35
2023-03-02T07:57:20.085Z,31.00
2023-03-02T07:59:49.533Z,33.20
2023-03-02T08:02:20.272Z,29.08
2023-03-02T08:04:48.382Z,28.30
2023-03-02T08:07:16.356Z,29.98
2023-03-02T08:09:44.222Z,29.83
2023-03-02T08:12:12.141Z,30.35
2023-03-02T08:14:40.226Z,28.33
2023-03-02T08:17:10.013Z,30.15
2023-03-02T08:19:38.130Z,28.92
2023-03-02T08:22:06.018Z,28.35
2023-03-02T08:24:33.900Z,29.13
2023-03-02T08:27:02.763Z,29.85
2023-03-02T08:29:30.879Z,30.23
2023-03-02T08:31:59.668Z,29.45
2023-03-02T08:34:29.003Z,29.55
2023-03-02T08:36:56.917Z,29.15
2023-03-02T08:39:24.937Z,27.17
2023-03-02T08:41:52.990Z,27.15
2023-03-02T08:44:22.078Z,30.08
2023-03-02T08:46:50.455Z,29.05
2023-03-02T08:49:18.759Z,28.10
2023-03-02T08:51:49.052Z,27.27
2023-03-02T08:54:17.194Z,28.40
2023-03-02T08:56:45.084Z,28.50
2023-03-02T08:59:14.411Z,27.55
2023-03-02T09:01:43.403Z,27.95
2023-03-02T09:04:12.282Z,30.65
2023-03-02T09:06:42.578Z,31.13
2023-03-02T09:09:13.141Z,28.08
2023-03-02T09:11:42.292Z,27.80
2023-03-02T09:14:11.115Z,28.15
2023-03-02T09:16:39.107Z,29.88
2023-03-02T09:19:07.607Z,29.33
2023-03-02T09:21:35.812Z,29.65
2023-03-02T09:24:03.827Z,27.75
2023-03-02T09:26:34.034Z,27.90
2023-03-02T09:29:01.977Z,29.90
2023-03-02T09:31:30.574Z,27.90
2023-03-02T09:33:58.621Z,28.85
2023-03-02T09:36:28.083Z,29.15
2023-03-02T09:38:56.079Z,29.08
2023-03-02T09:41:58.874Z,30.45
2023-03-02T09:44:51.453Z,28.02
2023-03-02T09:47:35.605Z,27.55
2023-03-02T09:50:12.626Z,28.58
2023-03-02T09:52:48.665Z,28.58
2023-03-02T09:55:19.292Z,27.05
2023-03-02T09:57:49.205Z,27.90
2023-03-02T10:00:25.754Z,27.30
2023-03-02T10:03:05.105Z,27.77
2023-03-02T10:05:41.433Z,29.40
2023-03-02T10:08:14.008Z,29.23
2023-03-02T10:10:46.176Z,27.35
2023-03-02T10:13:24.240Z,27.85
2023-03-02T10:16:08.487Z,26.50
2023-03-02T10:18:42.101Z,28.27
2023-03-02T10:21:21.539Z,26.67
2023-03-02T10:23:57.338Z,27.92
2023-03-02T10:26:40.603Z,26.67
2023-03-02T10:29:25.962Z,27.90
2023-03-02T10:31:59.915Z,28.08
2023-03-02T10:34:30.559Z,27.40
2023-03-02T10:36:59.257Z,25.80
2023-03-02T10:39:27.145Z,26.75
2023-03-02T10:42:00.396Z,26.50
2023-03-02T10:44:32.351Z,27.77
2023-03-02T10:47:00.372Z,26.88
2023-03-02T10:49:31.600Z,27.83
2023-03-02T10:52:01.631Z,28.25
2023-03-02T10:54:31.605Z,26.48
2023-03-02T10:57:01.814Z,27.00
2023-03-02T10:59:43.192Z,25.45
2023-03-02T11:02:18.733Z,27.45
2023-03-02T11:04:47.008Z,27.10
2023-03-02T11:07:18.431Z,25.83
2023-03-02T11:10:01.762Z,26.50
2023-03-02T11:12:31.392Z,27.10
2023-03-02T11:15:25.150Z,26.73
2023-03-02T11:18:00.802Z,27.40
2023-03-02T11:20:33.458Z,29.52
2023-03-02T11:23:15.588Z,26.05
2023-03-02T11:25:49.469Z,26.40
2023-03-02T11:28:30.379Z,26.13
2023-03-02T11:31:02.144Z,28.00
2023-03-02T11:33:36.275Z,25.42
2023-03-02T11:36:08.909Z,27.08
2023-03-02T11:38:45.329Z,25.85
2023-03-02T11:41:26.805Z,26.27
2023-03-02T11:43:55.574Z,25.95
2023-03-02T11:46:27.772Z,25.50
2023-03-02T11:48:58.476Z,26.23
2023-03-02T11:51:29.441Z,25.88
2023-03-02T11:54:00.369Z,26.65
2023-03-02T11:56:31.511Z,27.08
2023-03-02T11:59:01.715Z,26.92
2023-03-02T12:01:32.271Z,25.00
2023-03-02T12:04:09.110Z,25.55
2023-03-02T12:06:40.289Z,25.95
2023-03-02T12:09:25.000Z,25.38
2023-03-02T12:11:58.168Z,25.60
2023-03-02T12:14:29.878Z,26.52
2023-03-02T12:17:22.192Z,25.05
2023-03-02T12:19:52.592Z,26.23
2023-03-02T12:22:30.872Z,24.70
2023-03-02T12:25:07.063Z,25.80
2023-03-02T12:27:38.365Z,25.08
2023-03-02T12:30:28.303Z,25.10
2023-03-02T12:33:20.075Z,26.05
2023-03-02T12:35:50.061Z,25.73
2023-03-02T12:38:26.951Z,25.00
2023-03-02T12:41:14.466Z,24.35
2023-03-02T12:43:48.489Z,25.73
2023-03-02T12:46:29.017Z,24.98
2023-03-02T12:49:45.593Z,25.60
2023-03-02T12:52:24.162Z,24.80
2023-03-02T12:55:06.735Z,25.75
2023-03-02T12:57:38.474Z,25.92
2023-03-02T13:00:17.756Z,24.60
2023-03-02T13:02:48.856Z,27.30
2023-03-02T13:05:22.515Z,25.52
2023-03-02T13:07:58.592Z,24.92
2023-03-02T13:10:31.185Z,23.23
2023-03-02T13:13:00.372Z,23.67
2023-03-02T13:15:28.459Z,22.85
2023-03-02T13:17:58.342Z,21.50
2023-03-02T13:20:30.142Z,21.10
2023-03-02T13:22:58.502Z,21.15
2023-03-02T13:25:28.694Z,21.48
2023-03-02T13:27:58.246Z,21.58
2023-03-02T13:30:29.350Z,20.35
2023-03-02T13:33:03.162Z,21.90
2023-03-02T13:35:37.985Z,22.20
2023-03-02T13:38:14.975Z,21.15
2023-03-02T13:40:44.791Z,20.67
2023-03-02T13:43:34.480Z,19.92
2023-03-02T13:46:03.665Z,21.00
2023-03-02T13:48:32.102Z,20.30
2023-03-02T13:51:03.899Z,20.08
2023-03-02T13:53:34.918Z,18.73
2023-03-02T13:56:02.998Z,20.80
2023-03-02T13:58:38.222Z,21.88
2023-03-02T14:01:07.635Z,20.45
2023-03-02T14:03:35.619Z,22.33
2023-03-02T14:06:06.034Z,22.65
2023-03-02T14:08:33.928Z,21.65
2023-03-02T14:11:03.774Z,21.65
2023-03-02T14:13:37.922Z,22.75
2023-03-02T14:16:06.692Z,21.50
2023-03-02T14:18:40.134Z,23.23
2023-03-02T14:21:13.648Z,21.75
2023-03-02T14:23:41.953Z,21.30
2023-03-02T14:26:28.102Z,22.65
2023-03-02T14:29:04.921Z,22.92
2023-03-02T14:31:33.558Z,22.40
2023-03-02T14:34:01.672Z,22.55
2023-03-02T14:36:34.482Z,21.90
2023-03-02T14:39:06.509Z,22.83
2023-03-02T14:41:51.262Z,24.17
2023-03-02T14:44:21.112Z,24.23
2023-03-02T14:46:49.030Z,22.98
2023-03-02T14:49:16.994Z,22.17
2023-03-02T14:51:59.095Z,24.67
2023-03-02T14:54:27.450Z,23.48
2023-03-02T14:56:55.434Z,23.95
2023-03-02T14:59:23.356Z,24.85
2023-03-02T15:01:51.377Z,23.90
2023-03-02T15:04:19.360Z,23.70
2023-03-02T15:06:48.683Z,23.17
2023-03-02T15:09:16.664Z,23.83
2023-03-02T15:11:44.650Z,24.45
2023-03-02T15:14:12.525Z,25.15
2023-03-02T15:16:42.755Z,25.38
2023-03-02T15:19:10.733Z,24.63
2023-03-02T15:21:41.558Z,25.40
2023-03-02T15:24:11.222Z,25.55
2023-03-02T15:26:41.050Z,24.10
2023-03-02T15:29:09.504Z,26.00
2023-03-02T15:31:37.475Z,26.42
2023-03-02T15:34:05.692Z,26.90
2023-03-02T15:36:33.692Z,26.55
2023-03-02T15:39:01.876Z,26.85
2023-03-02T15:41:31.267Z,25.88
2023-03-02T15:43:59.310Z,27.52
2023-03-02T15:46:27.356Z,25.23
2023-03-02T15:48:55.416Z,24.65
2023-03-02T15:51:23.935Z,25.50
2023-03-02T15:53:51.985Z,25.27
2023-03-02T15:56:19.906Z,25.33
2023-03-02T15:58:50.293Z,25.42
2023-03-02T16:01:18.260Z,26.98
2023-03-02T16:03:46.463Z,27.52
2023-03-02T16:06:15.707Z,25.38
2023-03-02T16:08:43.674Z,26.05
2023-03-02T16:11:18.656Z,26.15
2023-03-02T16:13:46.752Z,25.92
2023-03-02T16:16:16.126Z,26.42
2023-03-02T16:18:44.111Z,27.77
2023-03-02T16:21:13.213Z,28.13
2023-03-02T16:23:41.207Z,27.42
2023-03-02T16:26:10.421Z,27.90
2023-03-02T16:28:38.615Z,29.20
2023-03-02T16:31:07.241Z,28.50
2023-03-02T16:33:36.770Z,26.42
2023-03-02T16:36:05.034Z,27.60
2023-03-02T16:38:33.382Z,28.23
2023-03-02T16:41:02.032Z,27.60
2023-03-02T16:43:30.044Z,28.52
2023-03-02T16:45:58.102Z,29.67
2023-03-02T16:48:26.134Z,29.75
2023-03-02T16:50:58.846Z,28.83
2023-03-02T16:53:26.787Z,28.42
2023-03-02T16:55:54.711Z,30.25
2023-03-02T16:58:22.628Z,27.20
2023-03-02T17:00:50.689Z,29.73
2023-03-02T17:03:18.986Z,29.00
2023-03-02T17:05:46.969Z,29.33
2023-03-02T17:08:17.682Z,27.80
2023-03-02T17:10:45.937Z,26.98
2023-03-02T17:13:15.566Z,30.67
2023-03-02T17:15:43.802Z,30.20
2023-03-02T17:18:12.030Z,27.77
2023-03-02T17:20:40.080Z,30.33
2023-03-02T17:23:08.204Z,32.20
2023-03-02T17:25:37.456Z,31.35
2023-03-02T17:28:05.782Z,30.27
2023-03-02T17:30:34.209Z,29.67
2023-03-02T17:33:02.124Z,32.17
2023-03-02T17:35:30.052Z,28.77
2023-03-02T17:37:58.026Z,29.23
2023-03-02T17:40:26.024Z,31.33
2023-03-02T17:42:57.676Z,30.83
2023-03-02T17:45:28.195Z,32.22
2023-03-02T17:47:58.002Z,31.23
2023-03-02T17:50:26.848Z,32.97
2023-03-02T17:52:55.322Z,30.80
2023-03-02T17:55:23.260Z,31.00
2023-03-02T17:57:51.215Z,32.22
2023-03-02T18:00:22.971Z,31.85
2023-03-02T18:02:51.701Z,32.25
2023-03-02T18:05:20.905Z,34.13
2023-03-02T18:07:48.906Z,30.90
2023-03-02T18:10:17.087Z,30.90
2023-03-02T18:12:45.228Z,30.05
2023-03-02T18:15:14.259Z,31.90
2023-03-02T18:17:43.555Z,32.80
2023-03-02T18:20:12.623Z,34.67
2023-03-02T18:22:40.888Z,31.73
2023-03-02T18:25:09.572Z,33.30
2023-03-02T18:27:40.073Z,31.73
2023-03-02T18:30:09.309Z,31.35
2023-03-02T18:32:37.275Z,31.83
2023-03-02T18:35:07.588Z,30.85
2023-03-02T18:37:35.607Z,30.98
2023-03-02T18:40:03.952Z,32.45
2023-03-02T18:42:32.030Z,33.97
2023-03-02T18:45:00.175Z,31.58
2023-03-02T18:47:28.644Z,32.95
2023-03-02T18:49:57.323Z,31.92
2023-03-02T18:52:26.780Z,32.45
2023-03-02T18:54:57.738Z,32.22
2023-03-02T18:57:26.316Z,31.08
2023-03-02T18:59:54.288Z,30.83
2023-03-02T19:02:22.233Z,34.35
2023-03-02T19:04:50.201Z,32.28
2023-03-02T19:07:18.162Z,32.13
2023-03-02T19:09:47.488Z,31.75
2023-03-02T19:12:15.782Z,31.75
2023-03-02T19:14:43.737Z,33.95
2023-03-02T19:17:11.809Z,31.52
2023-03-02T19:19:41.302Z,32.83
2023-03-02T19:22:11.195Z,32.55
2023-03-02T19:24:40.435Z,34.08
2023-03-02T19:27:11.532Z,32.30
2023-03-02T19:29:39.830Z,32.63
2023-03-02T19:32:11.087Z,33.40
2023-03-02T19:34:39.411Z,31.52
2023-03-02T19:37:07.304Z,34.22
2023-03-02T19:39:35.290Z,33.45
2023-03-02T19:42:03.255Z,34.35
2023-03-02T19:44:33.504Z,33.80
2023-03-02T19:47:01.474Z,34.45
2023-03-02T19:49:29.476Z,31.75
2023-03-02T19:51:59.112Z,30.77
2023-03-02T19:54:27.570Z,33.35
2023-03-02T19:56:55.548Z,32.85
2023-03-02T19:59:25.064Z,33.45
2023-03-02T20:01:55.163Z,32.45
2023-03-02T20:04:23.246Z,34.63
2023-03-02T20:06:51.108Z,32.35
2023-03-02T20:09:20.203Z,32.05
2023-03-02T20:11:48.529Z,33.92
2023-03-02T20:14:31.232Z,33.10
2023-03-02T20:17:02.332Z,33.67
2023-03-02T20:19:30.322Z,34.33
2023-03-02T20:21:58.245Z,36.88
2023-03-02T20:24:26.135Z,32.85
2023-03-02T20:26:54.093Z,35.30
2023-03-02T20:29:22.083Z,33.03
2023-03-02T20:31:50.238Z,35.72
2023-03-02T20:34:19.508Z,32.75
2023-03-02T20:36:47.770Z,31.52
2023-03-02T20:39:18.957Z,33.10
2023-03-02T20:41:47.023Z,35.08
2023-03-02T20:44:15.053Z,32.60
2023-03-02T20:46:46.104Z,34.13
2023-03-02T20:49:16.228Z,34.40
2023-03-02T20:51:49.345Z,36.05
2023-03-02T20:54:17.541Z,33.35
2023-03-02T20:56:46.540Z,34.80
2023-03-02T20:59:14.873Z,35.50
2023-03-02T21:01:42.911Z,35.40
2023-03-02T21:04:10.985Z,36.63
2023-03-02T21:06:39.345Z,36.90
2023-03-02T21:09:10.041Z,36.95
2023-03-02T21:11:38.568Z,34.78
2023-03-02T21:14:06.812Z,35.67
2023-03-02T21:16:39.289Z,37.22
2023-03-02T21:19:09.376Z,37.15
2023-03-02T21:21:41.759Z,36.67
2023-03-02T21:24:16.673Z,37.75
2023-03-02T21:26:45.400Z,37.58
2023-03-02T21:29:14.391Z,38.65
2023-03-02T21:31:43.843Z,38.78
2023-03-02T21:34:12.472Z,38.22
2023-03-02T21:36:41.119Z,37.17
2023-03-02T21:39:11.897Z,37.72
2023-03-02T21:41:40.287Z,38.17
2023-03-02T21:44:08.417Z,38.50
2023-03-02T21:46:37.929Z,39.33
2023-03-02T21:49:05.963Z,40.15
2023-03-02T21:51:34.808Z,37.45
2023-03-02T21:54:02.893Z,37.47
2023-03-02T21:56:32.232Z,37.38
2023-03-02T21:59:00.152Z,38.50
2023-03-02T22:01:29.777Z,35.50
2023-03-02T22:03:57.824Z,36.88
2023-03-02T22:06:27.542Z,38.80
2023-03-02T22:08:55.687Z,36.35
2023-03-02T22:11:25.932Z,36.83
2023-03-02T22:13:57.535Z,37.85
2023-03-02T22:16:27.650Z,36.65
2023-03-02T22:18:57.341Z,36.13
2023-03-02T22:21:30.007Z,35.97
2023-03-02T22:24:21.303Z,38.03
2023-03-02T22:26:54.099Z,38.45
2023-03-02T22:29:26.644Z,39.15
2023-03-02T22:31:56.513Z,35.85
2023-03-02T22:34:26.309Z,37.05
2023-03-02T22:36:59.817Z,36.85
2023-03-02T22:39:31.615Z,35.13
2023-03-02T22:42:07.365Z,39.92
2023-03-02T22:44:37.039Z,37.47
2023-03-02T22:47:07.453Z,37.50
2023-03-02T22:49:35.322Z,38.85
2023-03-02T22:52:12.202Z,38.22
2023-03-02T22:54:40.139Z,37.60
2023-03-02T22:57:18.582Z,38.47
2023-03-02T22:59:47.811Z,39.33
2023-03-02T23:02:22.375Z,37.20
2023-03-02T23:04:50.605Z,39.42
2023-03-02T23:07:21.452Z,37.28
2023-03-02T23:09:49.750Z,40.63
2023-03-02T23:12:22.873Z,39.38
2023-03-02T23:14:54.198Z,37.90
2023-03-02T23:17:28.012Z,39.38
2023-03-02T23:19:57.282Z,38.92
2023-03-02T23:22:28.477Z,37.60
2023-03-02T23:24:56.651Z,38.67
2023-03-02T23:27:24.805Z,40.95
2023-03-02T23:29:54.215Z,38.80
2023-03-02T23:32:22.309Z,40.53
2023-03-02T23:34:50.308Z,37.83
2023-03-02T23:37:18.264Z,40.92
2023-03-02T23:39:46.296Z,39.08
2023-03-02T23:42:14.294Z,41.22
2023-03-02T23:44:42.180Z,39.53
2023-03-02T23:47:11.426Z,40.08
2023-03-02T23:49:39.718Z,39.17
2023-03-02T23:52:07.625Z,38.03
2023-03-02T23:54:35.495Z,39.17
2023-03-02T23:57:03.400Z,39.08
2023-03-02T23:59:31.401Z,40.30
